Time;durP1;ratioP1;P1;durP2;ratioP2;P2;SDS_P1;SDS_P2;PMS_P1;PMS_P2;Temp;Humidity;BMP_temperature;BMP_pressure;BME280_temperature;BME280_humidity;BME280_pressure;Samples;Min_cycle;Max_cycle;Signal;HPM_P1;HPM_P2
2022/09/11 00:00:54;;;;;;;117.18;58.88;;;;;;;11.44;100.00;101446.22;10361015;28;20048;-79
2022/09/11 00:05:55;;;;;;;115.18;56.92;;;;;;;11.43;100.00;101449.66;10356673;28;20046;-79
2022/09/11 00:10:56;;;;;;;118.50;61.25;;;;;;;11.46;100.00;101456.81;10343121;28;20103;-79
2022/09/11 00:15:57;;;;;;;119.88;64.53;;;;;;;11.42;100.00;101460.09;10278940;28;20058;-79
2022/09/11 00:20:57;;;;;;;131.82;65.80;;;;;;;11.42;100.00;101447.88;10299839;28;20038;-80
2022/09/11 00:26:01;;;;;;;118.38;61.00;;;;;;;11.34;100.00;101456.16;10336785;28;20034;-79
2022/09/11 00:31:04;;;;;;;131.77;65.97;;;;;;;11.29;100.00;101459.41;10348207;28;20050;-78
2022/09/11 00:36:06;;;;;;;;;;;;;;;11.28;100.00;101469.81;10351362;28;20088;-79
2022/09/11 00:41:11;;;;;;;136.32;65.85;;;;;;;11.31;100.00;101468.25;10349032;28;19925;-79
2022/09/11 00:46:11;;;;;;;139.15;74.57;;;;;;;11.35;100.00;101471.94;10324976;28;20042;-79
2022/09/11 00:51:12;;;;;;;148.48;70.30;;;;;;;11.35;100.00;101473.69;10351767;28;20070;-79
2022/09/11 00:56:12;;;;;;;148.32;71.95;;;;;;;11.47;100.00;101469.09;10325011;28;20046;-79
2022/09/11 01:01:13;;;;;;;142.85;72.07;;;;;;;11.52;100.00;101475.47;10339437;28;20050;-79
2022/09/11 01:06:14;;;;;;;164.50;74.05;;;;;;;11.35;100.00;101473.69;10318565;28;20383;-78
2022/09/11 01:11:50;;;;;;;136.63;63.28;;;;;;;11.26;100.00;101487.16;10346997;28;20081;-79
2022/09/11 01:16:58;;;;;;;143.50;67.20;;;;;;;11.11;100.00;101487.22;10344619;28;20125;-79
2022/09/11 01:22:33;;;;;;;148.65;72.93;;;;;;;11.14;100.00;101490.91;10283031;28;20033;-79
2022/09/11 01:27:43;;;;;;;136.32;63.00;;;;;;;11.05;100.00;101494.75;10338155;28;20498;-79
2022/09/11 01:33:05;;;;;;;136.68;61.80;;;;;;;10.99;100.00;101495.28;10330450;28;20499;-79
2022/09/11 01:38:13;;;;;;;128.68;59.92;;;;;;;10.78;100.00;101501.13;10342409;28;20046;-79
2022/09/11 01:43:16;;;;;;;122.85;64.22;;;;;;;10.66;100.00;101501.34;10319980;28;20042;-79
2022/09/11 01:48:17;;;;;;;;;;;;;;;10.81;100.00;101503.91;10341786;28;20042;-79
2022/09/11 01:53:17;;;;;;;175.05;73.55;;;;;;;10.81;100.00;101501.28;10343051;28;19988;-79
2022/09/11 01:58:29;;;;;;;145.43;67.18;;;;;;;10.73;100.00;101507.81;10376291;28;20103;-79
2022/09/11 02:03:35;;;;;;;141.15;66.80;;;;;;;10.75;100.00;101515.78;10362532;28;20038;-78
2022/09/11 02:08:43;;;;;;;162.43;70.38;;;;;;;10.77;100.00;101512.41;10333776;28;20034;-79
2022/09/11 02:14:01;;;;;;;176.23;76.47;;;;;;;10.90;100.00;101515.72;10358560;28;20038;-79
2022/09/11 02:19:08;;;;;;;179.05;80.07;;;;;;;11.00;100.00;101521.59;10334073;28;20046;-79
2022/09/11 02:24:09;;;;;;;192.38;89.15;;;;;;;11.19;100.00;101524.31;10342686;28;20038;-78
2022/09/11 02:29:10;;;;;;;180.77;85.47;;;;;;;11.33;100.00;101527.72;10339865;28;20397;-79
2022/09/11 02:34:11;;;;;;;181.30;86.55;;;;;;;11.43;100.00;101520.44;10334818;28;20042;-79
2022/09/11 02:39:46;;;;;;;168.05;76.10;;;;;;;11.39;100.00;101533.31;10364102;28;20482;-78
2022/09/11 02:45:15;;;;;;;158.85;73.57;;;;;;;11.22;100.00;101538.50;10339643;28;20042;-79
2022/09/11 02:50:33;;;;;;;174.57;78.25;;;;;;;11.12;100.00;101538.81;10333338;28;20456;-79
2022/09/11 02:55:37;;;;;;;227.20;81.57;;;;;;;11.21;100.00;101555.03;10344039;28;20043;-79
2022/09/11 03:00:38;;;;;;;176.13;77.20;;;;;;;11.27;100.00;101554.47;10331804;28;20049;-80
2022/09/11 03:05:40;;;;;;;199.18;82.60;;;;;;;11.31;100.00;101557.38;10344993;28;20048;-79
2022/09/11 03:10:41;;;;;;;185.57;75.57;;;;;;;11.18;100.00;101551.34;10358725;28;20503;-79
2022/09/11 03:15:44;;;;;;;179.27;79.35;;;;;;;11.07;100.00;101554.25;10344465;28;20070;-79
2022/09/11 03:20:48;;;;;;;183.40;76.68;;;;;;;11.00;100.00;101555.63;10329336;28;20043;-79
2022/09/11 03:25:49;;;;;;;151.95;65.90;;;;;;;11.00;100.00;101555.63;10333445;28;20038;-79
2022/09/11 03:30:49;;;;;;;184.55;79.35;;;;;;;11.06;100.00;101556.81;10325522;28;20542;-79
2022/09/11 03:35:50;;;;;;;172.05;73.95;;;;;;;10.96;100.00;101555.38;10323474;28;20100;-80
2022/09/11 03:40:50;;;;;;;148.43;68.47;;;;;;;10.81;100.00;101555.41;10313941;28;20383;-80
2022/09/11 03:45:51;;;;;;;186.75;71.13;;;;;;;10.72;100.00;101547.91;10310088;28;20093;-80
2022/09/11 03:50:51;;;;;;;195.40;74.82;;;;;;;10.61;100.00;101546.38;10331120;28;20117;-80
2022/09/11 03:55:53;;;;;;;207.77;76.43;;;;;;;10.46;100.00;101543.78;10351373;28;20040;-80
2022/09/11 04:00:54;;;;;;;180.02;78.30;;;;;;;10.55;100.00;101550.44;10323159;28;20061;-79
2022/09/11 04:05:59;;;;;;;181.45;72.28;;;;;;;10.47;100.00;101551.69;10323461;28;20069;-78
2022/09/11 04:11:04;;;;;;;203.35;83.25;;;;;;;10.48;100.00;101556.13;10318041;28;20049;-79
2022/09/11 04:16:32;;;;;;;233.52;92.90;;;;;;;10.65;100.00;101564.97;10329028;28;20515;-78
2022/09/11 04:21:33;;;;;;;186.27;78.25;;;;;;;10.84;100.00;101560.81;10347339;28;20046;-79
2022/09/11 04:26:34;;;;;;;194.38;85.53;;;;;;;10.91;100.00;101555.13;10327450;28;20030;-84
2022/09/11 04:31:35;;;;;;;182.00;75.82;;;;;;;10.95;100.00;101564.94;10334478;28;20074;-80
2022/09/11 04:36:35;;;;;;;231.40;87.88;;;;;;;11.00;100.00;101565.19;10338022;28;20042;-79
2022/09/11 04:41:36;;;;;;;311.23;101.28;;;;;;;11.12;100.00;101565.91;10317871;28;20092;-80
2022/09/11 04:46:36;;;;;;;193.70;80.88;;;;;;;11.34;100.00;101571.47;10331696;28;20042;-82
2022/09/11 04:51:39;;;;;;;319.00;102.63;;;;;;;11.43;100.00;101575.47;10318214;28;20065;-81
2022/09/11 04:56:39;;;;;;;231.30;94.63;;;;;;;11.45;100.00;101575.56;10333900;28;20038;-81
2022/09/11 05:01:41;;;;;;;242.73;92.72;;;;;;;11.49;100.00;101577.56;10318079;28;20073;-80
2022/09/11 05:06:47;;;;;;;236.65;95.93;;;;;;;11.54;100.00;101586.56;10319002;28;20038;-80
2022/09/11 05:11:47;;;;;;;293.67;95.57;;;;;;;11.56;100.00;101581.41;10338951;28;20044;-78
2022/09/11 05:16:51;;;;;;;290.60;94.75;;;;;;;11.54;100.00;101589.19;10359310;28;20049;-79
2022/09/11 05:21:51;;;;;;;272.98;89.78;;;;;;;11.55;100.00;101596.25;10359587;28;20551;-79
2022/09/11 05:26:52;;;;;;;306.33;100.60;;;;;;;11.56;100.00;101599.75;10315597;28;20039;-80
2022/09/11 05:31:57;;;;;;;329.08;96.95;;;;;;;11.56;100.00;101603.28;10320057;28;20069;-80
2022/09/11 05:36:58;;;;;;;258.80;90.78;;;;;;;11.59;100.00;101613.94;10317800;28;20490;-80
2022/09/11 05:41:59;;;;;;;266.42;87.85;;;;;;;11.71;100.00;101620.69;10316775;28;20129;-80
2022/09/11 05:46:59;;;;;;;265.92;88.03;;;;;;;11.72;100.00;101632.97;10319058;28;20157;-79
2022/09/11 05:52:00;;;;;;;356.83;100.13;;;;;;;11.70;100.00;101640.75;10334380;28;20037;-79
2022/09/11 05:57:01;;;;;;;196.23;77.10;;;;;;;11.78;100.00;101641.19;10333706;28;20583;-79
2022/09/11 06:02:01;;;;;;;226.30;87.20;;;;;;;11.82;100.00;101639.63;10319170;28;20046;-79
2022/09/11 06:07:02;;;;;;;263.85;90.90;;;;;;;11.87;100.00;101643.38;10318987;28;20035;-80
2022/09/11 06:12:03;;;;;;;275.13;87.55;;;;;;;11.89;100.00;101653.16;10317762;28;20042;-79
2022/09/11 06:17:05;;;;;;;219.82;85.53;;;;;;;11.96;100.00;101667.50;10319590;28;20038;-80
2022/09/11 06:22:05;;;;;;;317.80;97.00;;;;;;;11.95;100.00;101668.31;10316830;28;20364;-80
2022/09/11 06:27:06;;;;;;;275.25;91.43;;;;;;;11.93;100.00;101682.19;10318493;28;20118;-80
2022/09/11 06:32:06;;;;;;;261.88;90.20;;;;;;;11.97;100.00;101694.66;10318232;28;20478;-79
2022/09/11 06:37:07;;;;;;;252.18;85.50;;;;;;;11.95;100.00;101694.56;10333013;28;20035;-79
2022/09/11 06:42:09;;;;;;;226.45;80.35;;;;;;;11.94;100.00;101691.88;10322787;28;20487;-79
2022/09/11 06:47:10;;;;;;;263.27;87.50;;;;;;;12.03;100.00;101692.41;10324053;28;20589;-79
2022/09/11 06:52:10;;;;;;;261.02;80.22;;;;;;;12.04;100.00;101697.72;10324224;28;20056;-79
2022/09/11 06:57:11;;;;;;;267.10;84.88;;;;;;;12.09;100.00;101695.38;10325433;28;20049;-79
2022/09/11 07:02:11;;;;;;;296.55;86.18;;;;;;;12.07;100.00;101706.56;10323551;28;20038;-80
2022/09/11 07:07:12;;;;;;;250.23;87.60;;;;;;;12.26;100.00;101705.88;10323741;28;20053;-79
2022/09/11 07:12:13;;;;;;;235.05;84.95;;;;;;;12.42;100.00;101695.38;10321222;28;20046;-80
2022/09/11 07:17:13;;;;;;;227.70;80.75;;;;;;;12.45;100.00;101698.16;10323962;28;21670;-79
2022/09/11 07:22:14;;;;;;;217.52;82.03;;;;;;;12.55;100.00;101694.28;10317510;28;20424;-79
2022/09/11 07:27:15;;;;;;;201.55;77.82;;;;;;;12.63;100.00;101698.22;10315436;28;20605;-79
2022/09/11 07:32:16;;;;;;;217.50;80.65;;;;;;;12.74;100.00;101701.44;10288251;28;20622;-78
2022/09/11 07:37:16;;;;;;;202.63;80.88;;;;;;;12.90;100.00;101703.09;10320630;28;20049;-82
2022/09/11 07:42:17;;;;;;;225.38;84.20;;;;;;;12.95;100.00;101706.00;10318926;28;20049;-82
2022/09/11 07:47:18;;;;;;;195.35;75.05;;;;;;;13.04;100.00;101716.06;10317801;28;20112;-82
2022/09/11 07:52:19;;;;;;;189.65;72.25;;;;;;;13.07;100.00;101706.63;10314387;28;20545;-80
2022/09/11 07:57:23;;;;;;;144.48;63.47;;;;;;;13.21;100.00;101709.91;10354813;28;20034;-79
2022/09/11 08:02:23;;;;;;;168.23;67.40;;;;;;;13.25;100.00;101723.22;10360905;28;20037;-79
2022/09/11 08:07:24;;;;;;;186.60;72.95;;;;;;;13.25;100.00;101726.78;10359676;28;20504;-79
2022/09/11 08:12:24;;;;;;;173.02;65.63;;;;;;;13.24;100.00;101724.97;10359947;28;20034;-79
2022/09/11 08:17:25;;;;;;;156.93;67.40;;;;;;;13.41;100.00;101725.78;10359357;28;20041;-80
2022/09/11 08:22:25;;;;;;;143.73;63.38;;;;;;;13.54;100.00;101726.44;10338882;28;20034;-79
2022/09/11 08:27:26;;;;;;;142.00;62.05;;;;;;;13.78;100.00;101732.00;10320339;28;20148;-79
2022/09/11 08:32:27;;;;;;;112.80;53.75;;;;;;;13.89;100.00;101730.78;10303343;28;20133;-79
2022/09/11 08:37:27;;;;;;;111.70;51.90;;;;;;;14.01;100.00;101742.72;10319914;28;20080;-81
2022/09/11 08:42:28;;;;;;;96.32;51.70;;;;;;;14.13;100.00;101753.84;10318789;28;20125;-80
2022/09/11 08:47:32;;;;;;;86.72;49.58;;;;;;;14.64;100.00;101753.53;10318951;28;20058;-80
2022/09/11 08:52:34;;;;;;;83.07;44.70;;;;;;;14.70;100.00;101765.22;10318884;28;20042;-80
2022/09/11 08:57:47;;;;;;;;;;;;;;;14.81;100.00;101764.88;10320253;28;20058;-80
2022/09/11 09:02:53;;;;;;;67.65;38.13;;;;;;;15.14;100.00;101760.13;10319548;28;19922;-80
2022/09/11 09:07:56;;;;;;;51.17;33.13;;;;;;;15.53;100.00;101747.69;10302442;28;20062;-80
2022/09/11 09:13:14;;;;;;;45.40;30.52;;;;;;;15.86;100.00;101763.09;10319344;28;20035;-80
2022/09/11 09:18:28;;;;;;;43.60;33.50;;;;;;;16.22;100.00;101763.63;10317959;28;20097;-80
2022/09/11 09:23:34;;;;;;;40.97;25.80;;;;;;;16.65;98.78;101764.38;10319800;28;20066;-80
2022/09/11 09:28:44;;;;;;;44.13;30.05;;;;;;;16.73;99.94;101768.19;10302114;28;20070;-81
2022/09/11 09:33:51;;;;;;;39.92;23.65;;;;;;;17.35;96.59;101769.50;10301448;28;20035;-81
2022/09/11 09:38:52;;;;;;;32.70;24.27;;;;;;;18.26;88.68;101759.22;10318511;28;20161;-81
2022/09/11 09:44:07;;;;;;;31.13;22.45;;;;;;;19.29;83.06;101762.06;10317419;28;20048;-80
2022/09/11 09:49:11;;;;;;;32.55;22.17;;;;;;;18.94;83.95;101757.56;10302631;28;20198;-80
2022/09/11 09:54:16;;;;;;;28.20;20.65;;;;;;;19.77;78.05;101752.63;10284614;28;20077;-81
2022/09/11 09:59:19;;;;;;;26.48;21.13;;;;;;;21.87;71.79;101754.06;10301350;28;20121;-81
2022/09/11 10:04:22;;;;;;;36.55;20.65;;;;;;;24.14;60.58;101755.56;10295471;28;20049;-80
2022/09/11 10:09:27;;;;;;;26.13;19.30;;;;;;;26.12;54.35;101751.38;10316324;28;20050;-80
2022/09/11 10:14:31;;;;;;;22.35;19.92;;;;;;;24.79;58.34;101760.28;10318751;28;20980;-80
2022/09/11 10:19:39;;;;;;;27.98;21.48;;;;;;;22.34;65.24;101756.50;10340135;28;20054;-80
2022/09/11 10:24:41;;;;;;;25.38;20.42;;;;;;;20.83;70.26;101764.72;10335688;28;20062;-81
2022/09/11 10:29:48;;;;;;;27.88;20.77;;;;;;;19.77;76.34;101761.50;10321949;28;20042;-81
2022/09/11 10:34:48;;;;;;;25.05;16.17;;;;;;;22.98;62.25;101765.25;10338901;28;20799;-80
2022/09/11 10:39:49;;;;;;;18.17;13.47;;;;;;;25.33;51.55;101762.16;10320834;28;20058;-80
2022/09/11 10:44:50;;;;;;;20.00;17.50;;;;;;;23.10;58.35;101761.84;10338030;28;20797;-84
2022/09/11 10:50:19;;;;;;;21.53;16.83;;;;;;;21.42;64.65;101764.88;10323270;28;20161;-84
2022/09/11 10:55:19;;;;;;;25.30;18.20;;;;;;;21.86;62.13;101763.81;10323749;28;20047;-89
2022/09/11 11:00:29;;;;;;;19.90;17.27;;;;;;;21.19;65.47;101772.47;10313914;28;20043;-80
2022/09/11 11:05:38;;;;;;;21.10;16.92;;;;;;;20.68;67.48;101764.38;10282085;28;20551;-80
2022/09/11 11:10:50;;;;;;;17.45;13.05;;;;;;;20.90;69.83;101775.47;10285762;28;20056;-80
2022/09/11 11:16:13;;;;;;;18.73;14.95;;;;;;;21.83;63.29;101766.44;10321750;28;20051;-77
2022/09/11 11:21:36;;;;;;;18.35;14.38;;;;;;;23.45;60.00;101762.19;10315016;28;20531;-78
2022/09/11 11:26:52;;;;;;;14.82;10.60;;;;;;;27.58;52.06;101752.31;10319993;28;20049;-77
2022/09/11 11:32:05;;;;;;;16.38;13.85;;;;;;;25.82;51.56;101765.72;10320914;28;20042;-78
2022/09/11 11:37:11;;;;;;;17.65;14.85;;;;;;;24.32;51.89;101759.22;10306230;28;20074;-79
2022/09/11 11:42:25;;;;;;;17.40;14.07;;;;;;;23.04;57.34;101762.66;10311555;28;20046;-79
2022/09/11 11:47:29;;;;;;;17.23;13.13;;;;;;;22.12;61.70;101766.88;10316566;28;20038;-81
2022/09/11 11:52:30;;;;;;;19.25;14.15;;;;;;;20.86;65.84;101771.88;10317372;28;20077;-79
2022/09/11 11:57:34;;;;;;;22.23;16.65;;;;;;;20.41;68.49;101765.59;10321736;28;20134;-78
2022/09/11 12:02:50;;;;;;;20.35;14.85;;;;;;;19.72;72.69;101763.16;10303488;28;20117;-81
2022/09/11 12:07:51;;;;;;;19.75;14.88;;;;;;;19.45;73.31;101758.97;10306030;28;20414;-80
2022/09/11 12:12:54;;;;;;;19.58;15.07;;;;;;;19.96;69.80;101759.31;10356176;28;20069;-79
2022/09/11 12:18:02;;;;;;;19.77;15.43;;;;;;;20.99;69.12;101749.03;10342618;28;20420;-79
2022/09/11 12:23:04;;;;;;;19.30;15.15;;;;;;;22.36;61.49;101752.09;10342275;28;20129;-79
2022/09/11 12:28:24;;;;;;;20.23;13.63;;;;;;;25.34;54.29;101743.41;10334190;28;20092;-79
2022/09/11 12:33:40;;;;;;;16.40;12.10;;;;;;;27.33;48.45;101739.97;10317300;28;20513;-79
2022/09/11 12:38:55;;;;;;;14.65;12.75;;;;;;;28.86;42.93;101736.47;10319623;28;20121;-79
2022/09/11 12:44:01;;;;;;;15.07;12.45;;;;;;;28.15;44.96;101738.31;10320392;28;20121;-79
2022/09/11 12:49:05;;;;;;;15.27;10.32;;;;;;;28.56;43.21;101734.19;10299637;28;20553;-79
2022/09/11 12:54:21;;;;;;;12.68;10.95;;;;;;;29.09;42.38;101727.13;10318492;28;20049;-80
2022/09/11 12:59:28;;;;;;;12.77;9.55;;;;;;;28.38;40.63;101720.97;10317273;28;20046;-79
2022/09/11 13:04:32;;;;;;;11.65;9.60;;;;;;;28.27;39.79;101713.03;10318020;28;20027;-80
2022/09/11 13:09:45;;;;;;;8.35;6.55;;;;;;;28.42;37.15;101707.44;10318861;28;20044;-80
2022/09/11 13:14:56;;;;;;;8.70;6.13;;;;;;;27.96;39.10;101711.59;10334628;28;20038;-79
2022/09/11 13:20:08;;;;;;;7.50;5.55;;;;;;;29.03;38.52;101701.19;10319506;28;20177;-80
2022/09/11 13:25:30;;;;;;;7.30;6.55;;;;;;;30.20;37.59;101693.66;10318792;28;20038;-79
2022/09/11 13:30:31;;;;;;;12.20;8.45;;;;;;;26.57;42.64;101697.50;10317696;28;20038;-80
2022/09/11 13:35:31;;;;;;;12.20;7.80;;;;;;;25.30;46.95;101701.44;10319203;28;20125;-79
2022/09/11 13:40:51;;;;;;;12.07;9.40;;;;;;;23.43;49.72;101686.47;10301133;28;20045;-79
2022/09/11 13:46:14;;;;;;;10.98;8.38;;;;;;;25.07;51.02;101685.38;10317501;28;20144;-79
2022/09/11 13:51:19;;;;;;;9.68;7.95;;;;;;;27.21;43.44;101673.78;10324195;28;20054;-80
2022/09/11 13:56:35;;;;;;;10.35;9.20;;;;;;;28.33;42.26;101666.31;10325654;28;20035;-79
2022/09/11 14:01:36;;;;;;;11.05;8.57;;;;;;;28.34;39.90;101652.81;10327301;28;20050;-79
2022/09/11 14:06:36;;;;;;;15.50;10.33;;;;;;;29.30;37.83;101653.13;10330974;28;20039;-80
2022/09/11 14:11:37;;;;;;;12.40;8.73;;;;;;;29.54;36.53;101648.22;10327000;28;20121;-80
2022/09/11 14:16:48;;;;;;;11.50;9.47;;;;;;;28.96;38.19;101642.94;10332078;28;20045;-81
2022/09/11 14:21:49;;;;;;;10.95;7.85;;;;;;;29.35;37.76;101642.22;10345465;28;20073;-81
2022/09/11 14:26:50;;;;;;;12.10;9.02;;;;;;;29.12;38.16;101632.75;10342438;28;20125;-82
2022/09/11 14:31:51;;;;;;;8.70;7.80;;;;;;;28.74;38.14;101635.19;10290829;28;20066;-80
2022/09/11 14:37:08;;;;;;;11.52;6.95;;;;;;;28.09;41.13;101631.59;10359048;28;20038;-80
2022/09/11 14:42:16;;;;;;;7.32;6.05;;;;;;;27.33;44.13;101631.59;10357215;28;20050;-80
2022/09/11 14:47:18;;;;;;;12.43;7.97;;;;;;;27.40;42.54;101633.28;10343258;28;20516;-79
2022/09/11 14:52:25;;;;;;;14.55;9.20;;;;;;;27.20;42.96;101629.03;10348248;28;20122;-82
2022/09/11 14:57:29;;;;;;;11.52;8.52;;;;;;;26.99;40.66;101630.13;10334387;28;20041;-81
2022/09/11 15:02:29;;;;;;;10.13;7.60;;;;;;;26.42;44.79;101623.38;10359363;28;20065;-81
2022/09/11 15:07:31;;;;;;;12.68;10.00;;;;;;;26.47;43.39;101617.94;10327587;28;20034;-79
2022/09/11 15:12:33;;;;;;;8.27;7.47;;;;;;;27.09;41.14;101614.81;10347085;28;20073;-81
2022/09/11 15:17:35;;;;;;;11.18;7.93;;;;;;;26.59;40.33;101615.19;10356006;28;20033;-81
2022/09/11 15:22:37;;;;;;;;;;;;;;;25.70;42.28;101616.53;10347331;28;20371;-81
2022/09/11 15:27:37;;;;;;;9.00;6.65;;;;;;;25.48;43.89;101612.13;10346110;28;19925;-80
2022/09/11 15:32:38;;;;;;;16.00;11.63;;;;;;;25.36;43.60;101601.41;10319818;28;20068;-81
2022/09/11 15:37:38;;;;;;;12.43;10.27;;;;;;;24.62;44.96;101600.53;10328063;28;20113;-81
2022/09/11 15:42:41;;;;;;;10.77;7.18;;;;;;;23.02;47.68;101598.91;10308004;28;20073;-81
2022/09/11 15:47:41;;;;;;;11.17;8.17;;;;;;;22.31;53.23;101601.81;10335642;28;20041;-79
2022/09/11 15:52:42;;;;;;;7.88;6.60;;;;;;;21.60;57.92;101595.59;10320526;28;20538;-80
2022/09/11 15:57:43;;;;;;;9.20;5.28;;;;;;;20.91;64.72;101604.31;10317911;28;20125;-78
2022/09/11 16:02:44;;;;;;;9.10;7.17;;;;;;;20.64;60.72;101605.63;10322741;28;20053;-81
2022/09/11 16:07:46;;;;;;;14.30;6.63;;;;;;;19.49;72.62;101600.63;10350668;28;20037;-80
2022/09/11 16:12:47;;;;;;;17.17;12.50;;;;;;;18.35;82.61;101607.53;10358834;28;20048;-79
2022/09/11 16:17:48;;;;;;;17.05;9.23;;;;;;;17.76;84.69;101597.88;10338255;28;20045;-81
2022/09/11 16:22:49;;;;;;;8.17;4.93;;;;;;;17.60;82.88;101597.41;10319907;28;20042;-81
2022/09/11 16:27:51;;;;;;;7.85;5.50;;;;;;;17.43;84.79;101590.72;10320770;28;20035;-81
2022/09/11 16:32:51;;;;;;;8.27;5.27;;;;;;;17.24;85.68;101587.50;10320961;28;20376;-81
2022/09/11 16:37:52;;;;;;;9.20;6.95;;;;;;;17.14;85.27;101585.41;10318422;28;20035;-81
2022/09/11 16:42:53;;;;;;;16.15;11.35;;;;;;;17.02;87.63;101584.16;10324790;28;20044;-81
2022/09/11 16:47:55;;;;;;;6.70;5.40;;;;;;;16.88;92.58;101590.72;10319537;28;20128;-81
2022/09/11 16:53:05;;;;;;;19.77;13.75;;;;;;;16.68;94.26;101577.72;10318095;28;20129;-81
2022/09/11 16:58:06;;;;;;;9.30;6.72;;;;;;;16.56;97.45;101569.38;10315245;28;20042;-80
2022/09/11 17:03:06;;;;;;;8.77;6.50;;;;;;;16.31;96.64;101568.53;10299688;28;20026;-79
2022/09/11 17:08:07;;;;;;;8.80;7.10;;;;;;;16.00;97.29;101564.78;10351366;28;20566;-81
2022/09/11 17:13:08;;;;;;;10.20;7.97;;;;;;;15.74;100.00;101562.03;10313476;28;20050;-82
2022/09/11 17:18:09;;;;;;;11.13;7.28;;;;;;;15.53;100.00;101560.38;10313001;28;20047;-80
2022/09/11 17:23:10;;;;;;;11.50;7.72;;;;;;;15.35;100.00;101557.97;10315847;28;20053;-81
2022/09/11 17:28:11;;;;;;;11.27;7.30;;;;;;;15.12;100.00;101557.94;10320331;28;20113;-81
2022/09/11 17:33:13;;;;;;;10.68;7.68;;;;;;;14.93;100.00;101556.28;10315034;28;20129;-79
2022/09/11 17:38:14;;;;;;;9.65;7.38;;;;;;;14.74;100.00;101559.00;10315194;28;20096;-81
2022/09/11 17:43:14;;;;;;;14.05;8.43;;;;;;;14.56;100.00;101559.09;10313232;28;20513;-79
2022/09/11 17:48:16;;;;;;;11.85;7.72;;;;;;;14.44;100.00;101548.94;10315523;28;20046;-78
2022/09/11 17:53:21;;;;;;;11.60;8.40;;;;;;;14.22;100.00;101554.19;10317298;28;20046;-79
2022/09/11 17:58:21;;;;;;;11.85;9.02;;;;;;;13.97;100.00;101551.31;10294013;28;20129;-80
2022/09/11 18:03:22;;;;;;;20.10;10.48;;;;;;;13.76;100.00;101555.66;10318165;28;20034;-81
2022/09/11 18:08:22;;;;;;;13.52;9.80;;;;;;;13.63;100.00;101566.44;10330239;28;20390;-82
2022/09/11 18:13:23;;;;;;;14.88;8.80;;;;;;;13.45;100.00;101566.50;10340603;28;20047;-79
2022/09/11 18:18:23;;;;;;;20.05;12.35;;;;;;;13.36;100.00;101561.66;10316173;28;20038;-79
2022/09/11 18:23:24;;;;;;;16.45;12.20;;;;;;;13.26;100.00;101562.03;10339854;28;20117;-78
2022/09/11 18:28:26;;;;;;;18.98;11.68;;;;;;;13.20;100.00;101560.03;10316178;28;20058;-79
2022/09/11 18:33:27;;;;;;;14.02;11.23;;;;;;;13.09;100.00;101553.38;10313010;28;20054;-78
2022/09/11 18:38:28;;;;;;;17.83;10.63;;;;;;;13.02;100.00;101560.03;10312194;28;20133;-78
2022/09/11 18:43:29;;;;;;;23.98;12.85;;;;;;;12.96;100.00;101558.03;10339428;28;20441;-78
2022/09/11 18:48:29;;;;;;;18.00;14.27;;;;;;;12.81;100.00;101563.41;10323425;28;20038;-78
2022/09/11 18:53:30;;;;;;;17.38;12.63;;;;;;;12.60;100.00;101558.00;10324944;28;20129;-78
2022/09/11 18:58:34;;;;;;;21.02;15.15;;;;;;;12.50;100.00;101564.50;10337415;28;20043;-79
2022/09/11 19:03:38;;;;;;;18.60;13.65;;;;;;;12.40;100.00;101567.47;10337567;28;20494;-78
2022/09/11 19:08:40;;;;;;;22.13;15.35;;;;;;;12.37;100.00;101562.06;10321603;28;20047;-80
2022/09/11 19:13:41;;;;;;;24.80;17.67;;;;;;;12.33;100.00;101569.78;10317176;28;20030;-79
2022/09/11 19:18:42;;;;;;;22.58;15.23;;;;;;;12.30;100.00;101577.50;10320978;28;20445;-79
2022/09/11 19:23:43;;;;;;;25.05;17.15;;;;;;;12.33;100.00;101571.53;10320599;28;20046;-79
2022/09/11 19:28:44;;;;;;;26.25;19.67;;;;;;;12.33;100.00;101563.66;10322771;28;20034;-80
2022/09/11 19:33:45;;;;;;;29.30;18.73;;;;;;;12.17;100.00;101567.19;10335953;28;20038;-79
2022/09/11 19:38:46;;;;;;;47.25;26.10;;;;;;;12.24;100.00;101577.19;10363809;28;20030;-79
2022/09/11 19:43:47;;;;;;;29.52;21.48;;;;;;;12.06;100.00;101573.59;10325296;28;20042;-81
2022/09/11 19:48:47;;;;;;;40.80;26.30;;;;;;;11.99;100.00;101572.34;10363063;28;20065;-79
2022/09/11 19:53:48;;;;;;;38.63;28.20;;;;;;;12.07;100.00;101581.56;10348628;28;20042;-80
2022/09/11 19:58:49;;;;;;;41.38;27.45;;;;;;;12.01;100.00;101574.25;10321777;28;20121;-79
2022/09/11 20:03:51;;;;;;;48.42;29.63;;;;;;;11.98;100.00;101570.53;10336513;28;20038;-79
2022/09/11 20:08:52;;;;;;;31.90;24.33;;;;;;;11.82;100.00;101561.84;10321754;28;20038;-79
2022/09/11 20:13:54;;;;;;;39.08;27.65;;;;;;;11.72;100.00;101560.44;10335504;28;20038;-79
2022/09/11 20:18:55;;;;;;;44.72;27.60;;;;;;;11.68;100.00;101566.34;10319967;28;20034;-79
2022/09/11 20:23:56;;;;;;;39.43;25.70;;;;;;;11.52;100.00;101564.63;10322146;28;20443;-79
2022/09/11 20:29:00;;;;;;;46.83;30.83;;;;;;;11.41;100.00;101568.34;10320899;28;20121;-80
2022/09/11 20:34:01;;;;;;;48.90;30.38;;;;;;;11.37;100.00;101556.78;10348875;28;20034;-78
2022/09/11 20:39:02;;;;;;;37.85;24.38;;;;;;;11.31;100.00;101560.00;10307250;28;20027;-78
2022/09/11 20:44:03;;;;;;;49.63;29.85;;;;;;;11.37;100.00;101559.41;10322211;28;20058;-79
2022/09/11 20:49:03;;;;;;;46.10;30.90;;;;;;;11.24;100.00;101555.22;10335681;28;20494;-79
2022/09/11 20:54:04;;;;;;;50.97;33.15;;;;;;;11.22;100.00;101555.94;10325879;28;20446;-79
2022/09/11 20:59:04;;;;;;;48.67;35.38;;;;;;;11.22;100.00;101550.69;10320959;28;20035;-78
2022/09/11 21:04:05;;;;;;;53.92;30.35;;;;;;;11.12;100.00;101549.28;10309633;28;20121;-80
2022/09/11 21:09:07;;;;;;;45.55;29.02;;;;;;;11.03;100.00;101554.91;10323130;28;20133;-80
2022/09/11 21:14:09;;;;;;;49.00;29.10;;;;;;;10.92;100.00;101554.31;10304650;28;20129;-80
2022/09/11 21:19:09;;;;;;;53.97;31.40;;;;;;;11.05;100.00;101550.66;10319478;28;20121;-80
2022/09/11 21:24:11;;;;;;;48.72;31.30;;;;;;;10.92;100.00;101549.06;10341270;28;20038;-79
2022/09/11 21:29:12;;;;;;;47.80;28.48;;;;;;;10.92;100.00;101548.16;10301676;28;20055;-80
2022/09/11 21:34:12;;;;;;;48.83;32.53;;;;;;;10.96;100.00;101542.25;10317503;28;20507;-80
2022/09/11 21:39:13;;;;;;;53.60;30.17;;;;;;;10.99;100.00;101540.75;10355156;28;20224;-80
2022/09/11 21:44:13;;;;;;;56.75;33.33;;;;;;;10.85;100.00;101534.69;10333232;28;20030;-81
2022/09/11 21:49:14;;;;;;;40.92;29.27;;;;;;;10.71;100.00;101548.72;10320091;28;20125;-80
2022/09/11 21:54:14;;;;;;;64.00;36.03;;;;;;;10.70;100.00;101539.97;10342579;28;20545;-80
2022/09/11 21:59:15;;;;;;;65.55;38.50;;;;;;;10.77;100.00;101549.06;10360026;28;20049;-80
2022/09/11 22:04:15;;;;;;;68.30;36.83;;;;;;;10.61;100.00;101560.38;10319403;28;20145;-79
2022/09/11 22:09:19;;;;;;;56.22;34.20;;;;;;;10.49;100.00;101557.94;10342220;28;20092;-80
2022/09/11 22:14:20;;;;;;;56.22;33.67;;;;;;;10.51;100.00;101561.53;10341527;28;20092;-81
2022/09/11 22:19:21;;;;;;;57.55;32.13;;;;;;;10.40;100.00;101549.53;10323528;28;20145;-80
2022/09/11 22:24:21;;;;;;;65.47;28.92;;;;;;;10.30;100.00;101548.06;10325152;28;20093;-80
2022/09/11 22:29:22;;;;;;;57.03;30.75;;;;;;;10.27;100.00;101545.28;10318903;28;20125;-81
2022/09/11 22:34:22;;;;;;;40.22;26.25;;;;;;;10.34;100.00;101544.81;10291270;28;20045;-81